Time;durP1;ratioP1;P1;durP2;ratioP2;P2;SDS_P1;SDS_P2;PMS_P1;PMS_P2;Temp;Humidity;BMP_temperature;BMP_pressure;BME280_temperature;BME280_humidity;BME280_pressure;Samples;Min_cycle;Max_cycle;Signal;HPM_P1;HPM_P2
2022/12/20 00:02:18;;;;;;;6.68;3.38;;;;;;;;;;4989571;28;99074;-73
2022/12/20 00:04:45;;;;;;;5.35;3.15;;;;;;;;;;4989524;28;98304;-74
2022/12/20 00:07:11;;;;;;;3.58;3.28;;;;;;;;;;4988668;28;99562;-73
2022/12/20 00:09:38;;;;;;;3.83;3.00;;;;;;;;;;4988558;28;99175;-73
2022/12/20 00:12:04;;;;;;;3.35;2.85;;;;;;;;;;4990780;27;98277;-74
2022/12/20 00:14:30;;;;;;;4.80;3.15;;;;;;;;;;4988565;28;99700;-74
2022/12/20 00:16:57;;;;;;;5.05;3.42;;;;;;;;;;4987238;28;99994;-74
2022/12/20 00:19:23;;;;;;;5.20;3.05;;;;;;;;;;4986891;28;99579;-72
2022/12/20 00:21:49;;;;;;;4.97;3.53;;;;;;;;;;4987359;28;99269;-71
2022/12/20 00:24:16;;;;;;;2.97;2.45;;;;;;;;;;4990176;28;98554;-72
2022/12/20 00:26:51;;;;;;;7.10;3.45;;;;;;;;;;4988833;28;98832;-72
2022/12/20 00:29:17;;;;;;;4.32;3.22;;;;;;;;;;4989476;27;98926;-72
2022/12/20 00:31:43;;;;;;;3.65;2.78;;;;;;;;;;4989240;28;98322;-72
2022/12/20 00:34:10;;;;;;;4.90;3.08;;;;;;;;;;4989705;28;99068;-73
2022/12/20 00:36:38;;;;;;;2.50;2.30;;;;;;;;;;4989162;28;99882;-72
2022/12/20 00:39:06;;;;;;;4.32;2.97;;;;;;;;;;4988150;28;101152;-72
2022/12/20 00:41:33;;;;;;;4.78;3.00;;;;;;;;;;4990238;28;98459;-73
2022/12/20 00:44:00;;;;;;;4.22;3.00;;;;;;;;;;4989384;28;98252;-73
2022/12/20 00:46:26;;;;;;;5.25;3.13;;;;;;;;;;5020925;28;99056;-72
2022/12/20 00:48:53;;;;;;;3.70;2.70;;;;;;;;;;4988621;28;99123;-73
2022/12/20 00:51:21;;;;;;;3.78;2.58;;;;;;;;;;4988396;28;98281;-73
2022/12/20 00:53:48;;;;;;;5.35;3.80;;;;;;;;;;4989275;28;100273;-73
2022/12/20 00:56:15;;;;;;;3.47;2.70;;;;;;;;;;4987540;28;98804;-72
2022/12/20 00:58:42;;;;;;;3.25;2.60;;;;;;;;;;4969511;28;98680;-72
2022/12/20 01:01:17;;;;;;;3.13;2.83;;;;;;;;;;4969515;28;98188;-72
2022/12/20 01:03:46;;;;;;;4.07;2.97;;;;;;;;;;4971141;28;100158;-74
2022/12/20 01:06:13;;;;;;;3.10;2.72;;;;;;;;;;4968802;28;98200;-72
2022/12/20 01:08:39;;;;;;;3.95;2.50;;;;;;;;;;4975400;28;101207;-72
2022/12/20 01:11:06;;;;;;;4.88;2.67;;;;;;;;;;4988481;28;98330;-73
2022/12/20 01:13:33;;;;;;;2.65;2.47;;;;;;;;;;4986027;28;99038;-73
2022/12/20 01:16:07;;;;;;;3.47;2.65;;;;;;;;;;4986675;28;99070;-73
2022/12/20 01:18:33;;;;;;;2.85;2.65;;;;;;;;;;4988953;28;98172;-73
2022/12/20 01:21:03;;;;;;;2.83;2.42;;;;;;;;;;4989105;28;98331;-73
2022/12/20 01:23:29;;;;;;;6.60;3.33;;;;;;;;;;4981574;28;98958;-73
2022/12/20 01:25:57;;;;;;;2.90;2.50;;;;;;;;;;4987630;28;99747;-73
2022/12/20 01:28:23;;;;;;;4.80;2.50;;;;;;;;;;4990700;28;100436;-72
2022/12/20 01:30:49;;;;;;;3.88;2.90;;;;;;;;;;4985593;28;98401;-72
2022/12/20 01:33:16;;;;;;;4.20;3.08;;;;;;;;;;4987375;28;101586;-73
2022/12/20 01:35:53;;;;;;;5.28;3.05;;;;;;;;;;4988429;28;98948;-74
2022/12/20 01:38:19;;;;;;;3.70;3.08;;;;;;;;;;4988179;28;99348;-72
2022/12/20 01:40:45;;;;;;;4.93;3.53;;;;;;;;;;4989976;28;98655;-72
2022/12/20 01:43:13;;;;;;;3.47;3.22;;;;;;;;;;4992750;28;98995;-73
2022/12/20 01:45:40;;;;;;;8.10;3.05;;;;;;;;;;4990560;28;100629;-72
2022/12/20 01:48:07;;;;;;;3.72;3.28;;;;;;;;;;5007848;28;100789;-73
2022/12/20 01:50:33;;;;;;;5.40;3.65;;;;;;;;;;5011209;28;98286;-73
2022/12/20 01:53:02;;;;;;;4.10;3.25;;;;;;;;;;5011342;28;99369;-73
2022/12/20 01:55:29;;;;;;;8.18;4.10;;;;;;;;;;5009452;28;100296;-72
2022/12/20 01:57:58;;;;;;;5.80;4.25;;;;;;;;;;5011966;28;98250;-74
2022/12/20 02:00:24;;;;;;;6.22;3.42;;;;;;;;;;4995332;28;98905;-73
2022/12/20 02:02:51;;;;;;;4.13;3.72;;;;;;;;;;4990468;28;98855;-73
2022/12/20 02:05:19;;;;;;;5.93;4.07;;;;;;;;;;4991532;28;98214;-74
2022/12/20 02:07:47;;;;;;;5.80;3.58;;;;;;;;;;4995182;28;98579;-73
2022/12/20 02:10:15;;;;;;;4.88;4.00;;;;;;;;;;4992738;28;98353;-73
2022/12/20 02:12:46;;;;;;;4.65;3.50;;;;;;;;;;4989830;28;99849;-73
2022/12/20 02:15:30;;;;;;;4.00;3.70;;;;;;;;;;4991519;28;99965;-74
2022/12/20 02:18:12;;;;;;;5.60;3.83;;;;;;;;;;4991995;28;98313;-73
2022/12/20 02:20:46;;;;;;;3.90;3.60;;;;;;;;;;4986088;28;101071;-74
2022/12/20 02:23:28;;;;;;;6.28;3.97;;;;;;;;;;5006460;28;100313;-74
2022/12/20 02:26:03;;;;;;;4.10;3.67;;;;;;;;;;4991616;28;98307;-74
2022/12/20 02:28:42;;;;;;;4.00;3.60;;;;;;;;;;4990513;28;98443;-74
2022/12/20 02:31:10;;;;;;;8.18;4.90;;;;;;;;;;4988377;28;100885;-73
2022/12/20 02:33:38;;;;;;;4.35;3.95;;;;;;;;;;4986396;28;98442;-72
2022/12/20 02:36:05;;;;;;;4.43;3.72;;;;;;;;;;4971248;28;99275;-73
2022/12/20 02:38:32;;;;;;;6.55;4.63;;;;;;;;;;4971455;28;98369;-73
2022/12/20 02:41:08;;;;;;;4.40;4.07;;;;;;;;;;4969232;28;100999;-73
2022/12/20 02:46:22;;;;;;;3.70;3.40;;;;;;;;;;4970867;28;98266;-73
2022/12/20 02:48:50;;;;;;;7.85;4.47;;;;;;;;;;4989889;28;98411;-73
2022/12/20 02:51:18;;;;;;;5.88;4.03;;;;;;;;;;4987991;28;101155;-73
2022/12/20 02:53:44;;;;;;;7.32;4.90;;;;;;;;;;4994277;28;98454;-72
2022/12/20 02:56:22;;;;;;;5.22;4.05;;;;;;;;;;4988514;28;98931;-73
2022/12/20 02:58:51;;;;;;;6.70;3.95;;;;;;;;;;4989660;28;98274;-73
2022/12/20 03:01:23;;;;;;;7.35;4.70;;;;;;;;;;4987933;28;101030;-73
2022/12/20 03:03:53;;;;;;;6.63;4.50;;;;;;;;;;5021473;28;101854;-73
2022/12/20 03:06:20;;;;;;;7.38;4.18;;;;;;;;;;4986564;28;98566;-72
2022/12/20 03:08:46;;;;;;;4.60;4.07;;;;;;;;;;4987298;28;99660;-73
2022/12/20 03:11:13;;;;;;;4.60;4.20;;;;;;;;;;4986978;28;99029;-72
2022/12/20 03:13:39;;;;;;;4.18;3.88;;;;;;;;;;4987357;28;98340;-72
2022/12/20 03:16:09;;;;;;;5.15;4.07;;;;;;;;;;4990322;28;98723;-73
2022/12/20 03:18:36;;;;;;;7.78;4.20;;;;;;;;;;4989967;28;98710;-74
2022/12/20 03:21:03;;;;;;;4.65;4.28;;;;;;;;;;4989462;28;98547;-73
2022/12/20 03:23:29;;;;;;;3.95;3.65;;;;;;;;;;4986682;28;101732;-73
2022/12/20 03:25:56;;;;;;;6.28;3.92;;;;;;;;;;4987534;28;99218;-73
2022/12/20 03:28:31;;;;;;;4.15;3.75;;;;;;;;;;4987541;28;99309;-73
2022/12/20 03:30:58;;;;;;;5.80;4.25;;;;;;;;;;4986834;28;99105;-73
2022/12/20 03:33:25;;;;;;;8.95;3.80;;;;;;;;;;4986426;28;98357;-72
2022/12/20 03:35:52;;;;;;;5.18;4.20;;;;;;;;;;4983183;28;99465;-74
2022/12/20 03:38:19;;;;;;;8.90;3.83;;;;;;;;;;5017025;28;100905;-72
2022/12/20 03:40:46;;;;;;;4.38;3.60;;;;;;;;;;4981265;28;100299;-74
2022/12/20 03:43:17;;;;;;;7.78;4.05;;;;;;;;;;4987119;28;101703;-73
2022/12/20 03:45:43;;;;;;;11.43;3.70;;;;;;;;;;4986678;28;98435;-73
2022/12/20 03:48:10;;;;;;;4.25;3.47;;;;;;;;;;4987434;28;101201;-74
2022/12/20 03:50:36;;;;;;;7.50;3.47;;;;;;;;;;4986021;28;101735;-73
2022/12/20 03:53:03;;;;;;;6.32;3.90;;;;;;;;;;5021006;28;98106;-73
2022/12/20 03:55:31;;;;;;;6.32;3.92;;;;;;;;;;4987001;28;100479;-73
2022/12/20 03:57:59;;;;;;;4.68;4.22;;;;;;;;;;4986049;28;99005;-73
2022/12/20 04:00:30;;;;;;;3.40;3.15;;;;;;;;;;4989299;28;98204;-73
2022/12/20 04:03:16;;;;;;;6.53;3.85;;;;;;;;;;4988309;28;98765;-74
2022/12/20 04:05:43;;;;;;;8.15;4.05;;;;;;;;;;4985706;28;99151;-73
2022/12/20 04:08:10;;;;;;;6.53;3.70;;;;;;;;;;4987026;28;101191;-73
2022/12/20 04:11:14;;;;;;;5.47;3.40;;;;;;;;;;4986697;28;101019;-73
2022/12/20 04:13:29;;;;;;;4.93;3.25;;;;;;;;;;4985645;28;98538;-73
2022/12/20 04:15:55;;;;;;;4.30;3.42;;;;;;;;;;4987022;28;100967;-74
2022/12/20 04:18:28;;;;;;;10.40;3.60;;;;;;;;;;5018991;28;99093;-74
2022/12/20 04:20:58;;;;;;;3.33;3.13;;;;;;;;;;5009360;28;98277;-73
2022/12/20 04:23:26;;;;;;;5.90;3.58;;;;;;;;;;5006538;28;100048;-73
2022/12/20 04:25:53;;;;;;;4.93;3.53;;;;;;;;;;5005479;28;99275;-73
2022/12/20 04:28:19;;;;;;;5.07;3.35;;;;;;;;;;5007067;28;101344;-73
2022/12/20 04:30:47;;;;;;;4.53;3.75;;;;;;;;;;5006389;28;102076;-73
2022/12/20 04:33:19;;;;;;;6.87;3.20;;;;;;;;;;5004250;28;98470;-73
2022/12/20 04:35:46;;;;;;;3.58;3.28;;;;;;;;;;4986147;28;100863;-74
2022/12/20 04:38:12;;;;;;;3.85;3.22;;;;;;;;;;4986332;28;101391;-73
2022/12/20 04:40:39;;;;;;;4.68;3.67;;;;;;;;;;4983987;28;98670;-73
2022/12/20 04:43:06;;;;;;;5.40;3.40;;;;;;;;;;4984938;28;100436;-73
2022/12/20 04:45:33;;;;;;;4.13;3.30;;;;;;;;;;4979932;28;98573;-73
2022/12/20 04:48:00;;;;;;;4.55;3.58;;;;;;;;;;4991945;28;98700;-74
2022/12/20 04:50:47;;;;;;;4.72;3.13;;;;;;;;;;5004392;28;99858;-73
2022/12/20 04:55:59;;;;;;;6.47;3.40;;;;;;;;;;5007398;28;98532;-73
2022/12/20 04:58:26;;;;;;;5.63;3.13;;;;;;;;;;5006101;28;101490;-73
2022/12/20 05:00:52;;;;;;;3.65;3.22;;;;;;;;;;5007729;28;98266;-74
2022/12/20 05:03:25;;;;;;;;;;;;;;;;;;5002857;28;101238;-73
2022/12/20 05:05:52;;;;;;;6.72;3.08;;;;;;;;;;4988517;28;100159;-73
2022/12/20 05:08:20;;;;;;;7.68;3.40;;;;;;;;;;4986040;28;100246;-72
2022/12/20 05:10:49;;;;;;;6.35;3.42;;;;;;;;;;4985566;28;99368;-73
2022/12/20 05:13:15;;;;;;;8.65;3.80;;;;;;;;;;4987539;28;98922;-73
2022/12/20 05:15:44;;;;;;;8.35;4.28;;;;;;;;;;4984069;28;98687;-73
2022/12/20 05:18:11;;;;;;;5.97;4.10;;;;;;;;;;4987509;28;99882;-73
2022/12/20 05:26:16;;;;;;;5.07;3.80;;;;;;;;;;4986142;28;98419;-73
2022/12/20 05:26:31;;;;;;;10.95;4.00;;;;;;;;;;4985612;28;101419;-73
2022/12/20 05:28:59;;;;;;;4.93;4.18;;;;;;;;;;5009452;27;98421;-73
2022/12/20 05:31:26;;;;;;;6.32;4.50;;;;;;;;;;5018423;28;101972;-73
2022/12/20 05:33:54;;;;;;;6.72;4.60;;;;;;;;;;5006014;28;98365;-73
2022/12/20 05:36:24;;;;;;;7.70;4.18;;;;;;;;;;5004815;28;98358;-74
2022/12/20 05:38:51;;;;;;;5.55;4.07;;;;;;;;;;4999560;28;101371;-72
2022/12/20 05:41:26;;;;;;;5.55;3.88;;;;;;;;;;4985071;28;98261;-73
2022/12/20 05:43:52;;;;;;;4.88;3.85;;;;;;;;;;4984835;28;98494;-73
2022/12/20 05:46:19;;;;;;;8.48;4.28;;;;;;;;;;4980855;28;101655;-73
2022/12/20 05:48:57;;;;;;;5.50;4.38;;;;;;;;;;4979831;28;98843;-73
2022/12/20 05:51:23;;;;;;;4.90;4.45;;;;;;;;;;4982629;28;100784;-72
2022/12/20 05:53:56;;;;;;;6.45;3.80;;;;;;;;;;4985617;28;98815;-73
2022/12/20 05:56:37;;;;;;;5.78;4.20;;;;;;;;;;5018834;28;101037;-73
2022/12/20 05:59:04;;;;;;;7.05;3.97;;;;;;;;;;4987260;28;99825;-73
2022/12/20 06:01:30;;;;;;;6.47;3.35;;;;;;;;;;4986836;28;98570;-73
2022/12/20 06:03:58;;;;;;;3.58;3.38;;;;;;;;;;4985282;28;101350;-73
2022/12/20 06:06:25;;;;;;;4.57;4.00;;;;;;;;;;4982634;28;101005;-73
2022/12/20 06:08:52;;;;;;;7.72;3.65;;;;;;;;;;4981307;28;98310;-73
2022/12/20 06:11:35;;;;;;;4.40;4.10;;;;;;;;;;4964743;28;100442;-73
2022/12/20 06:14:06;;;;;;;7.15;4.25;;;;;;;;;;4972527;28;98299;-73
2022/12/20 06:16:35;;;;;;;6.07;4.03;;;;;;;;;;4985336;28;101241;-73
2022/12/20 06:19:03;;;;;;;4.68;3.55;;;;;;;;;;4984185;28;99140;-73
2022/12/20 06:21:30;;;;;;;6.65;3.85;;;;;;;;;;4984976;28;98346;-73
2022/12/20 06:23:58;;;;;;;6.45;4.00;;;;;;;;;;4985575;28;100589;-73
2022/12/20 06:26:25;;;;;;;6.78;4.15;;;;;;;;;;4984188;28;103195;-74
2022/12/20 06:28:55;;;;;;;4.63;3.40;;;;;;;;;;4988464;28;98368;-73
2022/12/20 06:31:33;;;;;;;4.28;3.30;;;;;;;;;;4987796;28;98651;-73
2022/12/20 06:34:00;;;;;;;4.28;3.28;;;;;;;;;;4990947;28;99068;-73
2022/12/20 06:36:31;;;;;;;3.50;3.25;;;;;;;;;;4989593;28;98683;-73
2022/12/20 06:38:59;;;;;;;4.72;3.10;;;;;;;;;;4988343;28;99044;-74
2022/12/20 06:41:34;;;;;;;4.25;3.20;;;;;;;;;;4987240;28;98429;-73
2022/12/20 06:44:01;;;;;;;3.30;3.00;;;;;;;;;;4987852;28;99018;-73
2022/12/20 06:46:28;;;;;;;4.43;3.08;;;;;;;;;;5003351;28;101076;-73
2022/12/20 06:48:56;;;;;;;3.63;3.13;;;;;;;;;;4989540;28;98276;-74
2022/12/20 06:51:22;;;;;;;11.75;3.15;;;;;;;;;;4988534;28;98564;-72
2022/12/20 06:53:49;;;;;;;4.32;3.00;;;;;;;;;;4982616;28;101300;-73
2022/12/20 06:56:16;;;;;;;5.57;3.40;;;;;;;;;;4985419;28;99042;-73
2022/12/20 06:58:44;;;;;;;4.80;3.17;;;;;;;;;;4988089;28;100317;-73
2022/12/20 07:01:11;;;;;;;3.67;3.15;;;;;;;;;;4989964;28;98333;-73
2022/12/20 07:03:37;;;;;;;2.92;2.72;;;;;;;;;;4997168;28;99318;-73
2022/12/20 07:06:04;;;;;;;3.95;3.08;;;;;;;;;;4988742;28;100003;-73
2022/12/20 07:08:30;;;;;;;4.85;3.15;;;;;;;;;;4977266;28;100029;-73
2022/12/20 07:11:02;;;;;;;3.53;2.47;;;;;;;;;;4971566;28;99407;-74
2022/12/20 07:13:29;;;;;;;5.95;2.70;;;;;;;;;;4988972;28;100020;-73
2022/12/20 07:15:56;;;;;;;4.55;3.42;;;;;;;;;;4987386;28;98815;-73
2022/12/20 07:18:23;;;;;;;4.40;3.45;;;;;;;;;;4986199;28;99538;-72
2022/12/20 07:20:51;;;;;;;4.05;2.65;;;;;;;;;;4982473;28;99687;-72
2022/12/20 07:23:18;;;;;;;5.57;3.28;;;;;;;;;;4974549;28;100177;-73
2022/12/20 07:26:02;;;;;;;2.85;2.65;;;;;;;;;;4992255;27;99032;-72
2022/12/20 07:28:29;;;;;;;4.93;2.90;;;;;;;;;;5008662;28;98176;-72
2022/12/20 07:30:59;;;;;;;6.10;2.50;;;;;;;;;;4996159;28;98992;-73
2022/12/20 07:33:25;;;;;;;4.80;2.65;;;;;;;;;;4983090;28;98971;-73
2022/12/20 07:35:58;;;;;;;2.72;2.50;;;;;;;;;;4987884;28;98255;-73
2022/12/20 07:38:25;;;;;;;2.50;2.30;;;;;;;;;;4969937;28;101996;-72
2022/12/20 07:40:51;;;;;;;2.45;2.25;;;;;;;;;;4990360;28;99234;-73
2022/12/20 07:43:18;;;;;;;3.70;2.05;;;;;;;;;;4987310;28;98826;-73
2022/12/20 07:45:44;;;;;;;4.78;2.20;;;;;;;;;;4987788;27;98985;-73
2022/12/20 07:48:11;;;;;;;10.35;3.00;;;;;;;;;;4988367;28;98598;-74
2022/12/20 07:50:46;;;;;;;7.72;3.08;;;;;;;;;;4987593;28;99369;-73
2022/12/20 07:53:13;;;;;;;4.80;2.53;;;;;;;;;;4988283;28;99998;-73
2022/12/20 07:55:41;;;;;;;6.60;2.35;;;;;;;;;;4988033;28;98555;-73
2022/12/20 07:58:08;;;;;;;4.97;2.60;;;;;;;;;;4984248;28;98886;-73
2022/12/20 08:00:36;;;;;;;3.65;2.90;;;;;;;;;;4986337;28;100027;-74
2022/12/20 08:03:12;;;;;;;3.38;2.42;;;;;;;;;;4982061;28;98140;-73
2022/12/20 08:05:42;;;;;;;3.22;2.65;;;;;;;;;;4966663;28;100137;-73
2022/12/20 08:08:09;;;;;;;4.00;2.65;;;;;;;;;;4968236;28;98333;-73
2022/12/20 08:10:36;;;;;;;3.80;2.45;;;;;;;;;;4967001;28;99679;-73
2022/12/20 08:13:03;;;;;;;5.00;2.70;;;;;;;;;;4967280;28;99368;-73
2022/12/20 08:15:30;;;;;;;3.83;2.60;;;;;;;;;;4971757;28;98272;-74
2022/12/20 08:17:56;;;;;;;7.28;2.60;;;;;;;;;;4987583;28;98584;-73
2022/12/20 08:20:23;;;;;;;4.97;2.40;;;;;;;;;;4987575;28;99307;-73
2022/12/20 08:22:49;;;;;;;2.95;2.38;;;;;;;;;;4990779;28;98714;-74
2022/12/20 08:25:16;;;;;;;4.90;2.88;;;;;;;;;;4986575;28;98991;-73
2022/12/20 08:27:43;;;;;;;3.58;2.65;;;;;;;;;;4988133;28;98411;-73
2022/12/20 08:30:10;;;;;;;4.35;2.53;;;;;;;;;;4985732;28;99107;-73
2022/12/20 08:32:37;;;;;;;5.95;2.40;;;;;;;;;;4980600;28;100787;-73
2022/12/20 08:35:03;;;;;;;5.35;2.90;;;;;;;;;;4987056;28;98286;-74
2022/12/20 08:37:30;;;;;;;7.65;3.13;;;;;;;;;;4987317;28;99671;-74
2022/12/20 08:39:57;;;;;;;5.20;2.45;;;;;;;;;;4986645;28;100320;-74
2022/12/20 08:42:23;;;;;;;5.13;2.65;;;;;;;;;;4987620;28;98754;-73
2022/12/20 08:44:50;;;;;;;4.65;2.00;;;;;;;;;;4990558;28;99424;-74
2022/12/20 08:47:16;;;;;;;3.88;2.22;;;;;;;;;;4986314;28;98237;-74
2022/12/20 08:49:43;;;;;;;4.20;2.22;;;;;;;;;;4987009;28;98571;-74
2022/12/20 08:52:13;;;;;;;3.83;2.38;;;;;;;;;;4987332;28;100121;-74
2022/12/20 08:54:39;;;;;;;3.15;2.85;;;;;;;;;;4986370;28;98664;-74
2022/12/20 08:57:06;;;;;;;4.38;2.55;;;;;;;;;;4987570;28;98695;-72
2022/12/20 08:59:32;;;;;;;5.60;2.40;;;;;;;;;;4986271;28;99831;-72
2022/12/20 09:01:59;;;;;;;3.28;2.30;;;;;;;;;;4976253;27;98306;-73
2022/12/20 09:04:25;;;;;;;3.42;2.58;;;;;;;;;;4980808;28;98935;-73
2022/12/20 09:06:52;;;;;;;8.65;2.50;;;;;;;;;;4986672;28;98979;-74
2022/12/20 09:09:20;;;;;;;10.27;2.83;;;;;;;;;;4981476;28;98759;-71
2022/12/20 09:11:46;;;;;;;4.25;2.53;;;;;;;;;;4987128;28;100000;-72
2022/12/20 09:14:13;;;;;;;6.03;2.95;;;;;;;;;;4983040;28;98510;-73
2022/12/20 09:16:39;;;;;;;4.88;3.13;;;;;;;;;;4981962;28;98452;-75
2022/12/20 09:19:06;;;;;;;7.00;2.78;;;;;;;;;;4983404;28;98945;-73
2022/12/20 09:21:33;;;;;;;3.38;3.10;;;;;;;;;;4982163;28;98296;-73
2022/12/20 09:23:59;;;;;;;8.48;3.20;;;;;;;;;;4988057;28;99341;-74
2022/12/20 09:26:26;;;;;;;4.65;3.10;;;;;;;;;;4981600;28;99854;-74
2022/12/20 09:28:53;;;;;;;5.03;3.28;;;;;;;;;;4986176;28;98305;-74
2022/12/20 09:31:21;;;;;;;4.70;3.08;;;;;;;;;;4967882;28;99000;-73
2022/12/20 09:33:48;;;;;;;3.35;3.05;;;;;;;;;;4980280;28;98308;-72
2022/12/20 09:36:16;;;;;;;5.68;3.33;;;;;;;;;;4974098;28;98677;-74
2022/12/20 09:38:43;;;;;;;6.03;3.45;;;;;;;;;;4985210;28;99908;-72
2022/12/20 09:41:25;;;;;;;4.95;3.38;;;;;;;;;;4981355;28;98499;-72
2022/12/20 09:43:51;;;;;;;5.22;3.40;;;;;;;;;;4982604;28;99105;-74
2022/12/20 09:46:18;;;;;;;6.88;3.63;;;;;;;;;;4983996;27;99099;-72
2022/12/20 09:48:45;;;;;;;7.97;4.22;;;;;;;;;;4965841;28;98259;-74
2022/12/20 09:51:12;;;;;;;6.60;3.92;;;;;;;;;;4976097;28;98616;-72
2022/12/20 09:53:38;;;;;;;8.57;4.32;;;;;;;;;;4979579;28;100175;-73
2022/12/20 09:56:09;;;;;;;10.73;4.10;;;;;;;;;;4969348;28;99432;-73
2022/12/20 09:58:35;;;;;;;4.80;4.05;;;;;;;;;;4969031;28;99930;-73
2022/12/20 10:01:14;;;;;;;6.88;3.80;;;;;;;;;;4969895;28;99349;-73
2022/12/20 10:03:45;;;;;;;4.13;3.63;;;;;;;;;;4969487;28;99942;-73
2022/12/20 10:06:15;;;;;;;6.80;3.75;;;;;;;;;;4970011;28;100284;-73
2022/12/20 10:08:41;;;;;;;6.47;4.15;;;;;;;;;;4971694;28;98638;-73
2022/12/20 10:11:27;;;;;;;4.65;4.13;;;;;;;;;;4982259;28;98660;-73
2022/12/20 10:14:20;;;;;;;7.93;3.72;;;;;;;;;;4992521;28;100147;-73
2022/12/20 10:16:51;;;;;;;6.68;4.47;;;;;;;;;;4984690;28;99616;-72
2022/12/20 10:19:28;;;;;;;8.02;4.43;;;;;;;;;;4974956;28;99284;-74
2022/12/20 10:22:02;;;;;;;9.40;5.03;;;;;;;;;;4980105;28;99163;-74
2022/12/20 10:24:30;;;;;;;6.45;4.60;;;;;;;;;;4979379;28;98139;-73
2022/12/20 10:27:01;;;;;;;5.75;3.97;;;;;;;;;;4982881;28;99584;-72
2022/12/20 10:29:28;;;;;;;8.48;4.13;;;;;;;;;;4984088;28;98550;-74
2022/12/20 10:31:58;;;;;;;8.25;4.50;;;;;;;;;;4969620;28;98611;-75
2022/12/20 10:34:25;;;;;;;5.70;3.78;;;;;;;;;;4977673;28;99025;-74
2022/12/20 10:37:10;;;;;;;14.52;4.50;;;;;;;;;;4989636;28;99377;-74
2022/12/20 10:39:41;;;;;;;7.45;4.97;;;;;;;;;;4987707;28;99952;-74
2022/12/20 10:42:30;;;;;;;5.88;4.50;;;;;;;;;;4984443;28;98338;-74
2022/12/20 10:44:57;;;;;;;7.80;4.63;;;;;;;;;;4984641;28;99983;-72
2022/12/20 10:47:30;;;;;;;9.30;5.00;;;;;;;;;;4985263;28;99897;-72
2022/12/20 10:50:13;;;;;;;5.10;4.03;;;;;;;;;;4979898;28;98640;-72
2022/12/20 10:52:40;;;;;;;5.22;4.32;;;;;;;;;;4968567;28;98764;-72
2022/12/20 10:55:26;;;;;;;6.97;4.22;;;;;;;;;;4987164;28;98977;-72
2022/12/20 10:57:53;;;;;;;12.27;4.70;;;;;;;;;;4990971;28;98307;-73
2022/12/20 11:00:28;;;;;;;5.35;4.70;;;;;;;;;;4984074;28;99909;-73
2022/12/20 11:03:01;;;;;;;6.82;4.82;;;;;;;;;;4985397;28;98205;-72
2022/12/20 11:05:28;;;;;;;9.13;4.20;;;;;;;;;;4980987;28;98487;-73
2022/12/20 11:07:57;;;;;;;7.60;4.65;;;;;;;;;;4982766;28;100402;-73
2022/12/20 11:10:44;;;;;;;7.38;4.82;;;;;;;;;;4986367;28;99603;-73
2022/12/20 11:13:19;;;;;;;6.40;4.78;;;;;;;;;;4984916;28;100576;-74
2022/12/20 11:15:50;;;;;;;5.95;4.60;;;;;;;;;;4987769;28;101835;-73
2022/12/20 11:18:29;;;;;;;9.20;4.47;;;;;;;;;;4995485;28;98757;-72
2022/12/20 11:21:03;;;;;;;5.68;4.35;;;;;;;;;;4988987;28;99400;-72
2022/12/20 11:23:52;;;;;;;11.70;4.43;;;;;;;;;;4987913;28;98305;-71
2022/12/20 11:26:27;;;;;;;5.90;4.47;;;;;;;;;;4992842;28;99510;-73
2022/12/20 11:28:59;;;;;;;13.52;5.03;;;;;;;;;;4969494;28;99809;-74
2022/12/20 11:31:58;;;;;;;5.18;4.57;;;;;;;;;;4974408;28;99250;-73
2022/12/20 11:34:48;;;;;;;8.75;5.22;;;;;;;;;;4965120;28;98795;-72
2022/12/20 11:37:19;;;;;;;7.88;4.35;;;;;;;;;;4978498;28;99062;-73
2022/12/20 11:40:04;;;;;;;6.03;5.43;;;;;;;;;;4978068;28;98282;-73
2022/12/20 11:42:30;;;;;;;5.22;4.72;;;;;;;;;;4979035;28;100120;-74
2022/12/20 11:44:57;;;;;;;6.72;4.78;;;;;;;;;;4982786;28;100404;-72
2022/12/20 11:47:34;;;;;;;10.65;5.80;;;;;;;;;;4978605;28;99765;-72
2022/12/20 11:50:01;;;;;;;6.35;4.80;;;;;;;;;;4974231;28;100066;-72
2022/12/20 11:52:34;;;;;;;8.40;5.80;;;;;;;;;;4976238;28;99599;-73
2022/12/20 11:55:21;;;;;;;5.63;5.13;;;;;;;;;;4995628;28;100090;-72
2022/12/20 11:58:11;;;;;;;8.82;5.53;;;;;;;;;;4977014;28;100111;-72
2022/12/20 12:01:05;;;;;;;9.63;6.18;;;;;;;;;;4986778;28;98336;-72
2022/12/20 12:03:33;;;;;;;7.03;5.70;;;;;;;;;;4975773;28;98547;-72
2022/12/20 12:06:09;;;;;;;8.38;6.10;;;;;;;;;;4983845;28;99374;-73
2022/12/20 12:08:43;;;;;;;6.13;5.53;;;;;;;;;;4985771;28;98579;-73
2022/12/20 12:11:18;;;;;;;11.98;6.20;;;;;;;;;;4984895;28;99953;-73
2022/12/20 12:14:04;;;;;;;7.90;6.40;;;;;;;;;;4986568;28;98323;-74
2022/12/20 12:16:34;;;;;;;6.55;5.38;;;;;;;;;;4977423;28;100384;-73
2022/12/20 12:19:00;;;;;;;6.53;5.95;;;;;;;;;;4975220;28;99924;-73
2022/12/20 12:21:30;;;;;;;6.47;5.57;;;;;;;;;;4971178;28;98369;-73
2022/12/20 12:24:20;;;;;;;9.68;5.90;;;;;;;;;;4975370;28;100122;-73
2022/12/20 12:26:46;;;;;;;7.32;5.82;;;;;;;;;;4961286;28;100171;-73
2022/12/20 12:29:14;;;;;;;11.77;7.00;;;;;;;;;;4981051;28;99803;-73
2022/12/20 12:31:44;;;;;;;11.63;6.10;;;;;;;;;;4998029;28;98726;-73
2022/12/20 12:34:26;;;;;;;6.85;6.20;;;;;;;;;;4989248;28;99403;-74
2022/12/20 12:37:01;;;;;;;6.32;5.80;;;;;;;;;;4988959;28;99319;-73
2022/12/20 12:39:37;;;;;;;9.20;6.45;;;;;;;;;;4987157;28;99886;-74
2022/12/20 12:42:26;;;;;;;7.07;6.45;;;;;;;;;;4987731;28;98573;-74
2022/12/20 12:45:04;;;;;;;6.68;6.13;;;;;;;;;;4957965;28;99741;-74
2022/12/20 12:47:33;;;;;;;7.65;6.82;;;;;;;;;;5003130;28;99542;-73
2022/12/20 12:50:01;;;;;;;25.08;18.15;;;;;;;;;;5005879;28;98178;-73
2022/12/20 12:52:45;;;;;;;18.65;13.55;;;;;;;;;;5007819;28;98398;-73
2022/12/20 12:55:30;;;;;;;19.08;14.77;;;;;;;;;;5003960;28;99199;-73
2022/12/20 12:57:57;;;;;;;9.18;7.57;;;;;;;;;;4992777;28;99393;-74
2022/12/20 13:00:42;;;;;;;9.05;6.97;;;;;;;;;;4983567;28;100157;-75
2022/12/20 13:03:14;;;;;;;7.63;6.85;;;;;;;;;;4987334;28;98262;-74
2022/12/20 13:05:41;;;;;;;7.13;6.63;;;;;;;;;;4986015;28;99488;-74
2022/12/20 13:08:14;;;;;;;8.90;7.47;;;;;;;;;;4986268;28;99334;-74
2022/12/20 13:10:41;;;;;;;9.32;7.13;;;;;;;;;;4987049;28;98241;-74
2022/12/20 13:13:20;;;;;;;8.98;8.10;;;;;;;;;;4987146;28;98521;-74
2022/12/20 13:15:47;;;;;;;7.68;6.80;;;;;;;;;;4989344;28;100086;-73
2022/12/20 13:18:14;;;;;;;8.75;7.95;;;;;;;;;;4987266;28;99578;-73
2022/12/20 13:20:41;;;;;;;8.15;7.45;;;;;;;;;;4985942;28;100153;-72
2022/12/20 13:23:07;;;;;;;12.95;8.73;;;;;;;;;;4987240;28;98384;-74
2022/12/20 13:25:35;;;;;;;9.23;8.43;;;;;;;;;;4985403;28;98518;-73
2022/12/20 13:28:11;;;;;;;9.77;8.93;;;;;;;;;;4971638;28;99928;-73
2022/12/20 13:30:38;;;;;;;9.38;8.00;;;;;;;;;;4977801;28;99139;-73
2022/12/20 13:33:22;;;;;;;9.15;8.35;;;;;;;;;;4987454;28;99509;-73
2022/12/20 13:35:58;;;;;;;10.48;8.50;;;;;;;;;;4976820;28;99907;-73
2022/12/20 13:38:44;;;;;;;10.20;9.13;;;;;;;;;;4998032;28;98259;-73
2022/12/20 13:41:22;;;;;;;9.02;8.38;;;;;;;;;;4989514;28;99854;-73
2022/12/20 13:43:56;;;;;;;8.18;7.55;;;;;;;;;;4990950;28;98347;-73
2022/12/20 13:46:29;;;;;;;9.13;8.23;;;;;;;;;;5010552;28;99577;-74
2022/12/20 13:49:01;;;;;;;9.07;8.27;;;;;;;;;;5009291;28;99945;-74
2022/12/20 13:51:29;;;;;;;8.38;7.57;;;;;;;;;;5003138;28;99459;-73
2022/12/20 13:54:00;;;;;;;10.05;8.60;;;;;;;;;;4989563;28;99723;-73
2022/12/20 13:56:26;;;;;;;8.32;7.60;;;;;;;;;;4981293;28;99893;-73
2022/12/20 13:58:54;;;;;;;9.57;8.60;;;;;;;;;;4990388;28;99096;-73
2022/12/20 14:01:21;;;;;;;7.82;7.20;;;;;;;;;;4993545;28;100542;-73
2022/12/20 14:03:49;;;;;;;9.40;8.63;;;;;;;;;;4986475;28;98677;-73
2022/12/20 14:06:17;;;;;;;8.70;7.90;;;;;;;;;;4988087;28;99397;-74
2022/12/20 14:08:51;;;;;;;8.82;8.13;;;;;;;;;;4991715;28;99482;-72
2022/12/20 14:11:22;;;;;;;8.25;7.50;;;;;;;;;;4984239;28;98459;-72
2022/12/20 14:13:52;;;;;;;8.38;7.32;;;;;;;;;;4988933;28;98788;-73
2022/12/20 14:16:19;;;;;;;7.25;6.70;;;;;;;;;;4985225;28;98975;-73
2022/12/20 14:19:02;;;;;;;8.07;7.47;;;;;;;;;;4978049;28;98372;-73
2022/12/20 14:21:29;;;;;;;8.30;7.78;;;;;;;;;;4997815;28;99439;-73
2022/12/20 14:23:57;;;;;;;9.43;8.63;;;;;;;;;;4993762;28;100233;-73
2022/12/20 14:26:25;;;;;;;8.48;7.72;;;;;;;;;;4992184;28;99284;-73
2022/12/20 14:28:53;;;;;;;8.00;7.20;;;;;;;;;;4991990;28;100069;-73
2022/12/20 14:31:32;;;;;;;9.50;8.60;;;;;;;;;;4985101;28;98245;-73
2022/12/20 14:34:09;;;;;;;9.63;8.75;;;;;;;;;;4984118;28;99245;-74
2022/12/20 14:36:40;;;;;;;9.18;8.35;;;;;;;;;;4985713;28;99917;-74
2022/12/20 14:39:25;;;;;;;8.73;8.00;;;;;;;;;;4984332;28;99165;-74
2022/12/20 14:41:58;;;;;;;10.18;8.20;;;;;;;;;;4983019;28;99542;-72
2022/12/20 14:44:24;;;;;;;;;;;;;;;;;;4978085;28;99918;-73
2022/12/20 14:46:52;;;;;;;9.02;8.20;;;;;;;;;;4989785;28;112460;-72
2022/12/20 14:49:29;;;;;;;10.00;9.10;;;;;;;;;;4988537;28;99957;-73
2022/12/20 14:52:11;;;;;;;10.43;9.50;;;;;;;;;;4988807;28;98328;-74
2022/12/20 14:54:44;;;;;;;9.55;8.65;;;;;;;;;;4986024;28;99538;-72
2022/12/20 14:57:33;;;;;;;9.68;8.98;;;;;;;;;;4976415;28;99953;-73
2022/12/20 15:00:09;;;;;;;9.45;8.75;;;;;;;;;;4977263;28;98370;-74
2022/12/20 15:02:41;;;;;;;12.30;10.43;;;;;;;;;;4980621;28;98920;-73
2022/12/20 15:05:26;;;;;;;11.65;10.55;;;;;;;;;;4979125;28;99624;-73
2022/12/20 15:07:53;;;;;;;11.63;9.77;;;;;;;;;;4999625;28;100331;-74